sensor_id;sensor_type;location;lat;lon;timestamp;pressure;altitude;pressure_sealevel;temperature
75431;BMP280;64127;51.488;5.462;2023-04-22T00:00:09;100605.16;;;13.43
75431;BMP280;64127;51.488;5.462;2023-04-22T00:02:42;100606.03;;;13.42
75431;BMP280;64127;51.488;5.462;2023-04-22T00:05:15;100605.06;;;13.39
75431;BMP280;64127;51.488;5.462;2023-04-22T00:07:51;100601.41;;;13.34
75431;BMP280;64127;51.488;5.462;2023-04-22T00:10:23;100604.84;;;13.31
75431;BMP280;64127;51.488;5.462;2023-04-22T00:12:55;100608.34;;;13.30
75431;BMP280;64127;51.488;5.462;2023-04-22T00:15:27;100557.59;;;13.03
75431;BMP280;64127;51.488;5.462;2023-04-22T00:17:59;100597.50;;;13.18
75431;BMP280;64127;51.488;5.462;2023-04-22T00:20:31;100608.19;;;13.24
75431;BMP280;64127;51.488;5.462;2023-04-22T00:23:03;100592.25;;;13.19
75431;BMP280;64127;51.488;5.462;2023-04-22T00:25:35;100606.25;;;13.17
75431;BMP280;64127;51.488;5.462;2023-04-22T00:28:07;100597.44;;;13.15
75431;BMP280;64127;51.488;5.462;2023-04-22T00:30:39;100595.63;;;13.14
75431;BMP280;64127;51.488;5.462;2023-04-22T00:33:11;100598.22;;;13.12
75431;BMP280;64127;51.488;5.462;2023-04-22T00:35:45;100592.88;;;13.09
75431;BMP280;64127;51.488;5.462;2023-04-22T00:38:17;100596.44;;;13.11
75431;BMP280;64127;51.488;5.462;2023-04-22T00:40:49;100601.66;;;13.10
75431;BMP280;64127;51.488;5.462;2023-04-22T00:43:21;100599.88;;;13.09
75431;BMP280;64127;51.488;5.462;2023-04-22T00:45:53;100565.06;;;12.88
75431;BMP280;64127;51.488;5.462;2023-04-22T00:48:28;100585.41;;;12.95
75431;BMP280;64127;51.488;5.462;2023-04-22T00:51:00;100600.59;;;13.05
75431;BMP280;64127;51.488;5.462;2023-04-22T00:53:32;100600.59;;;13.05
75431;BMP280;64127;51.488;5.462;2023-04-22T00:56:04;100581.13;;;12.98
75431;BMP280;64127;51.488;5.462;2023-04-22T00:58:36;100597.88;;;13.02
75431;BMP280;64127;51.488;5.462;2023-04-22T01:01:08;100604.88;;;13.00
75431;BMP280;64127;51.488;5.462;2023-04-22T01:03:41;100604.88;;;13.00
75431;BMP280;64127;51.488;5.462;2023-04-22T01:06:15;100596.06;;;12.98
75431;BMP280;64127;51.488;5.462;2023-04-22T01:08:49;100565.06;;;12.88
75431;BMP280;64127;51.488;5.462;2023-04-22T01:11:21;100572.91;;;12.86
75431;BMP280;64127;51.488;5.462;2023-04-22T01:13:54;100591.72;;;13.00
75431;BMP280;64127;51.488;5.462;2023-04-22T01:16:28;100582.72;;;12.92
75431;BMP280;64127;51.488;5.462;2023-04-22T01:19:01;100594.41;;;13.03
75431;BMP280;64127;51.488;5.462;2023-04-22T01:21:34;100590.88;;;13.01
75431;BMP280;64127;51.488;5.462;2023-04-22T01:24:07;100586.47;;;13.01
75431;BMP280;64127;51.488;5.462;2023-04-22T01:26:40;100589.06;;;13.00
75431;BMP280;64127;51.488;5.462;2023-04-22T01:29:13;100584.72;;;13.02
75431;BMP280;64127;51.488;5.462;2023-04-22T01:31:46;100571.34;;;12.93
75431;BMP280;64127;51.488;5.462;2023-04-22T01:34:18;100586.47;;;13.01
75431;BMP280;64127;51.488;5.462;2023-04-22T01:36:50;100572.19;;;12.92
75431;BMP280;64127;51.488;5.462;2023-04-22T01:39:22;100582.75;;;12.93
75431;BMP280;64127;51.488;5.462;2023-04-22T01:41:55;100584.63;;;12.97
75431;BMP280;64127;51.488;5.462;2023-04-22T01:44:29;100581.09;;;12.97
75431;BMP280;64127;51.488;5.462;2023-04-22T01:47:01;100582.84;;;12.96
75431;BMP280;64127;51.488;5.462;2023-04-22T01:49:33;100588.09;;;12.96
75431;BMP280;64127;51.488;5.462;2023-04-22T01:52:05;100582.84;;;12.96
75431;BMP280;64127;51.488;5.462;2023-04-22T01:54:37;100585.53;;;12.98
75431;BMP280;64127;51.488;5.462;2023-04-22T01:57:11;100570.59;;;12.97
75431;BMP280;64127;51.488;5.462;2023-04-22T01:59:45;100569.75;;;12.98
75431;BMP280;64127;51.488;5.462;2023-04-22T02:02:17;100574.91;;;12.95
75431;BMP280;64127;51.488;5.462;2023-04-22T02:04:49;100577.44;;;12.92
75431;BMP280;64127;51.488;5.462;2023-04-22T02:07:21;100577.38;;;12.89
75431;BMP280;64127;51.488;5.462;2023-04-22T02:09:53;100572.88;;;12.85
75431;BMP280;64127;51.488;5.462;2023-04-22T02:12:25;100572.03;;;12.86
75431;BMP280;64127;51.488;5.462;2023-04-22T02:14:57;100567.59;;;12.85
75431;BMP280;64127;51.488;5.462;2023-04-22T02:17:29;100571.09;;;12.84
75431;BMP280;64127;51.488;5.462;2023-04-22T02:20:02;100559.56;;;12.79
75431;BMP280;64127;51.488;5.462;2023-04-22T02:22:36;100571.19;;;12.87
75431;BMP280;64127;51.488;5.462;2023-04-22T02:25:09;100548.13;;;12.77
75431;BMP280;64127;51.488;5.462;2023-04-22T02:27:44;100571.09;;;12.84
75431;BMP280;64127;51.488;5.462;2023-04-22T02:30:16;100567.59;;;12.83
75431;BMP280;64127;51.488;5.462;2023-04-22T02:32:48;100561.34;;;12.80
75431;BMP280;64127;51.488;5.462;2023-04-22T02:35:21;100565.84;;;12.84
75431;BMP280;64127;51.488;5.462;2023-04-22T02:37:53;100564.13;;;12.84
75431;BMP280;64127;51.488;5.462;2023-04-22T02:40:25;100561.47;;;12.84
75431;BMP280;64127;51.488;5.462;2023-04-22T02:42:57;100551.75;;;12.82
75431;BMP280;64127;51.488;5.462;2023-04-22T02:45:29;100554.34;;;12.80
75431;BMP280;64127;51.488;5.462;2023-04-22T02:48:01;100562.19;;;12.79
75431;BMP280;64127;51.488;5.462;2023-04-22T02:50:33;100553.41;;;12.78
75431;BMP280;64127;51.488;5.462;2023-04-22T02:53:07;100550.78;;;12.78
75431;BMP280;64127;51.488;5.462;2023-04-22T02:55:42;100551.66;;;12.79
75431;BMP280;64127;51.488;5.462;2023-04-22T02:58:14;100554.28;;;12.77
75431;BMP280;64127;51.488;5.462;2023-04-22T03:00:46;100556.78;;;12.73
75431;BMP280;64127;51.488;5.462;2023-04-22T03:03:18;100548.03;;;12.74
75431;BMP280;64127;51.488;5.462;2023-04-22T03:05:51;100553.25;;;12.72
75431;BMP280;64127;51.488;5.462;2023-04-22T03:08:24;100546.28;;;12.74
75431;BMP280;64127;51.488;5.462;2023-04-22T03:10:56;100548.03;;;12.74
75431;BMP280;64127;51.488;5.462;2023-04-22T03:13:28;100531.22;;;12.68
75431;BMP280;64127;51.488;5.462;2023-04-22T03:16:00;100541.88;;;12.73
75431;BMP280;64127;51.488;5.462;2023-04-22T03:18:32;100543.63;;;12.73
75431;BMP280;64127;51.488;5.462;2023-04-22T03:21:05;100533.09;;;12.73
75431;BMP280;64127;51.488;5.462;2023-04-22T03:23:38;100526.91;;;12.70
75431;BMP280;64127;51.488;5.462;2023-04-22T03:26:10;100523.44;;;12.71
75431;BMP280;64127;51.488;5.462;2023-04-22T03:28:42;100513.72;;;12.69
75431;BMP280;64127;51.488;5.462;2023-04-22T03:31:14;100519.97;;;12.73
75431;BMP280;64127;51.488;5.462;2023-04-22T03:33:47;100518.31;;;12.78
75431;BMP280;64127;51.488;5.462;2023-04-22T03:36:18;100516.63;;;12.80
75431;BMP280;64127;51.488;5.462;2023-04-22T03:38:52;100510.47;;;12.79
75431;BMP280;64127;51.488;5.462;2023-04-22T03:41:23;100505.16;;;12.76
75431;BMP280;64127;51.488;5.462;2023-04-22T03:43:57;100506.13;;;12.80
75431;BMP280;64127;51.488;5.462;2023-04-22T03:46:32;100506.97;;;12.79
75431;BMP280;64127;51.488;5.462;2023-04-22T03:49:04;100502.47;;;12.75
75431;BMP280;64127;51.488;5.462;2023-04-22T03:51:37;100496.22;;;12.71
75431;BMP280;64127;51.488;5.462;2023-04-22T03:54:09;100504.09;;;12.69
75431;BMP280;64127;51.488;5.462;2023-04-22T03:56:41;100496.16;;;12.68
75431;BMP280;64127;51.488;5.462;2023-04-22T03:59:13;100497.72;;;12.61
75431;BMP280;64127;51.488;5.462;2023-04-22T04:01:46;100493.44;;;12.63
75431;BMP280;64127;51.488;5.462;2023-04-22T04:04:18;100486.31;;;12.59
75431;BMP280;64127;51.488;5.462;2023-04-22T04:06:51;100486.53;;;12.68
75431;BMP280;64127;51.488;5.462;2023-04-22T04:09:23;100479.41;;;12.64
75431;BMP280;64127;51.488;5.462;2023-04-22T04:11:55;100485.63;;;12.68
75431;BMP280;64127;51.488;5.462;2023-04-22T04:14:27;100491.78;;;12.68
75431;BMP280;64127;51.488;5.462;2023-04-22T04:16:59;100474.97;;;12.62
75431;BMP280;64127;51.488;5.462;2023-04-22T04:19:31;100484.75;;;12.67
75431;BMP280;64127;51.488;5.462;2023-04-22T04:22:03;100467.81;;;12.56
75431;BMP280;64127;51.488;5.462;2023-04-22T04:24:35;100481.19;;;12.65
75431;BMP280;64127;51.488;5.462;2023-04-22T04:27:07;100476.03;;;12.68
75431;BMP280;64127;51.488;5.462;2023-04-22T04:29:39;100489.16;;;12.67
75431;BMP280;64127;51.488;5.462;2023-04-22T04:32:13;100486.47;;;12.65
75431;BMP280;64127;51.488;5.462;2023-04-22T04:34:45;100492.47;;;12.61
75431;BMP280;64127;51.488;5.462;2023-04-22T04:37:17;100473.84;;;12.52
75431;BMP280;64127;51.488;5.462;2023-04-22T04:39:49;100466.78;;;12.51
75431;BMP280;64127;51.488;5.462;2023-04-22T04:42:21;100481.94;;;12.60
75431;BMP280;64127;51.488;5.462;2023-04-22T04:44:55;100486.38;;;12.62
75431;BMP280;64127;51.488;5.462;2023-04-22T04:47:29;100480.06;;;12.56
75431;BMP280;64127;51.488;5.462;2023-04-22T04:50:05;100492.53;;;12.63
75431;BMP280;64127;51.488;5.462;2023-04-22T04:52:37;100472.06;;;12.51
75431;BMP280;64127;51.488;5.462;2023-04-22T04:55:09;100491.56;;;12.59
75431;BMP280;64127;51.488;5.462;2023-04-22T04:57:44;100490.53;;;12.54
75431;BMP280;64127;51.488;5.462;2023-04-22T05:00:16;100487.75;;;12.48
75431;BMP280;64127;51.488;5.462;2023-04-22T05:02:48;100501.09;;;12.56
75431;BMP280;64127;51.488;5.462;2023-04-22T05:05:20;100497.53;;;12.54
75431;BMP280;64127;51.488;5.462;2023-04-22T05:07:52;100470.91;;;12.42
75431;BMP280;64127;51.488;5.462;2023-04-22T05:10:24;100492.34;;;12.57
75431;BMP280;64127;51.488;5.462;2023-04-22T05:12:56;100492.41;;;12.58
75431;BMP280;64127;51.488;5.462;2023-04-22T05:15:28;100483.69;;;12.61
75431;BMP280;64127;51.488;5.462;2023-04-22T05:18:01;100478.41;;;12.59
75431;BMP280;64127;51.488;5.462;2023-04-22T05:20:33;100467.69;;;12.52
75431;BMP280;64127;51.488;5.462;2023-04-22T05:23:07;100482.81;;;12.60
75431;BMP280;64127;51.488;5.462;2023-04-22T05:25:39;100482.00;;;12.63
75431;BMP280;64127;51.488;5.462;2023-04-22T05:28:11;100484.59;;;12.61
75431;BMP280;64127;51.488;5.462;2023-04-22T05:30:43;100480.22;;;12.62
75431;BMP280;64127;51.488;5.462;2023-04-22T05:33:14;100475.03;;;12.65
75431;BMP280;64127;51.488;5.462;2023-04-22T05:35:47;100474.31;;;12.70
75431;BMP280;64127;51.488;5.462;2023-04-22T05:38:19;100477.13;;;12.77
75431;BMP280;64127;51.488;5.462;2023-04-22T05:40:51;100480.72;;;12.80
75431;BMP280;64127;51.488;5.462;2023-04-22T05:43:23;100466.75;;;12.83
75431;BMP280;64127;51.488;5.462;2023-04-22T05:45:55;100474.72;;;12.86
75431;BMP280;64127;51.488;5.462;2023-04-22T05:48:27;100475.69;;;12.89
75431;BMP280;64127;51.488;5.462;2023-04-22T05:50:59;100489.81;;;12.93
75431;BMP280;64127;51.488;5.462;2023-04-22T05:53:31;100480.19;;;12.95
75431;BMP280;64127;51.488;5.462;2023-04-22T05:56:03;100456.44;;;12.90
75431;BMP280;64127;51.488;5.462;2023-04-22T05:58:35;100471.50;;;12.97
75431;BMP280;64127;51.488;5.462;2023-04-22T06:01:08;100472.56;;;13.04
75431;BMP280;64127;51.488;5.462;2023-04-22T06:03:40;100472.81;;;13.13
75431;BMP280;64127;51.488;5.462;2023-04-22T06:06:13;100470.50;;;13.25
75431;BMP280;64127;51.488;5.462;2023-04-22T06:08:45;100467.22;;;13.35
75431;BMP280;64127;51.488;5.462;2023-04-22T06:11:17;100467.53;;;13.50
75431;BMP280;64127;51.488;5.462;2023-04-22T06:13:49;100469.59;;;13.62
75431;BMP280;64127;51.488;5.462;2023-04-22T06:16:21;100478.56;;;13.71
75431;BMP280;64127;51.488;5.462;2023-04-22T06:18:53;100463.59;;;13.69
75431;BMP280;64127;51.488;5.462;2023-04-22T06:21:26;100468.94;;;13.73
75431;BMP280;64127;51.488;5.462;2023-04-22T06:23:59;100464.81;;;13.85
75431;BMP280;64127;51.488;5.462;2023-04-22T06:26:32;100457.25;;;14.01
75431;BMP280;64127;51.488;5.462;2023-04-22T06:29:04;100453.00;;;14.08
75431;BMP280;64127;51.488;5.462;2023-04-22T06:31:36;100468.28;;;14.26
75431;BMP280;64127;51.488;5.462;2023-04-22T06:34:08;100469.53;;;14.41
75431;BMP280;64127;51.488;5.462;2023-04-22T06:36:40;100474.06;;;14.50
75431;BMP280;64127;51.488;5.462;2023-04-22T06:39:12;100463.63;;;14.56
75431;BMP280;64127;51.488;5.462;2023-04-22T06:41:44;100445.25;;;14.60
75431;BMP280;64127;51.488;5.462;2023-04-22T06:44:16;100434.00;;;14.69
75431;BMP280;64127;51.488;5.462;2023-04-22T06:46:48;100456.28;;;14.86
75431;BMP280;64127;51.488;5.462;2023-04-22T06:49:20;100446.78;;;14.97
75431;BMP280;64127;51.488;5.462;2023-04-22T06:51:52;100443.47;;;15.09
75431;BMP280;64127;51.488;5.462;2023-04-22T06:54:24;100404.53;;;14.97
75431;BMP280;64127;51.488;5.462;2023-04-22T06:56:57;100441.88;;;15.21
75431;BMP280;64127;51.488;5.462;2023-04-22T06:59:29;100438.53;;;15.32
75431;BMP280;64127;51.488;5.462;2023-04-22T07:02:01;100430.72;;;15.39
75431;BMP280;64127;51.488;5.462;2023-04-22T07:04:33;100441.50;;;15.51
75431;BMP280;64127;51.488;5.462;2023-04-22T07:07:05;100444.19;;;15.56
75431;BMP280;64127;51.488;5.462;2023-04-22T07:09:38;100420.47;;;15.57
75431;BMP280;64127;51.488;5.462;2023-04-22T07:12:10;100428.72;;;15.83
75431;BMP280;64127;51.488;5.462;2023-04-22T07:14:44;100429.78;;;15.96
75431;BMP280;64127;51.488;5.462;2023-04-22T07:17:16;100432.53;;;16.06
75431;BMP280;64127;51.488;5.462;2023-04-22T07:19:52;100429.00;;;16.06
75431;BMP280;64127;51.488;5.462;2023-04-22T07:22:25;100420.91;;;15.94
75431;BMP280;64127;51.488;5.462;2023-04-22T07:24:57;100431.34;;;15.83
75431;BMP280;64127;51.488;5.462;2023-04-22T07:27:29;100438.31;;;15.77
75431;BMP280;64127;51.488;5.462;2023-04-22T07:30:02;100438.41;;;15.83
75431;BMP280;64127;51.488;5.462;2023-04-22T07:32:34;100435.09;;;15.99
75431;BMP280;64127;51.488;5.462;2023-04-22T07:35:07;100439.59;;;16.06
75431;BMP280;64127;51.488;5.462;2023-04-22T07:37:39;100429.88;;;16.05
75431;BMP280;64127;51.488;5.462;2023-04-22T07:40:11;100417.38;;;15.93
75431;BMP280;64127;51.488;5.462;2023-04-22T07:42:44;100432.47;;;15.99
75431;BMP280;64127;51.488;5.462;2023-04-22T07:45:17;100429.97;;;16.14
75431;BMP280;64127;51.488;5.462;2023-04-22T07:47:50;100441.66;;;16.34
75431;BMP280;64127;51.488;5.462;2023-04-22T07:50:22;100443.41;;;16.34
75431;BMP280;64127;51.488;5.462;2023-04-22T07:52:54;100434.53;;;16.27
75431;BMP280;64127;51.488;5.462;2023-04-22T07:55:26;100408.03;;;16.22
75431;BMP280;64127;51.488;5.462;2023-04-22T07:57:58;100410.88;;;16.39
75431;BMP280;64127;51.488;5.462;2023-04-22T08:00:34;100412.81;;;16.55
75431;BMP280;64127;51.488;5.462;2023-04-22T08:03:06;100408.53;;;16.66
75431;BMP280;64127;51.488;5.462;2023-04-22T08:05:39;100408.53;;;16.69
75431;BMP280;64127;51.488;5.462;2023-04-22T08:08:11;100395.31;;;16.69
75431;BMP280;64127;51.488;5.462;2023-04-22T08:10:43;100397.09;;;16.75
75431;BMP280;64127;51.488;5.462;2023-04-22T08:13:15;100398.97;;;16.85
75431;BMP280;64127;51.488;5.462;2023-04-22T08:15:49;100396.41;;;16.99
75431;BMP280;64127;51.488;5.462;2023-04-22T08:18:21;100393.94;;;17.20
75431;BMP280;64127;51.488;5.462;2023-04-22T08:20:53;100385.22;;;17.39
75431;BMP280;64127;51.488;5.462;2023-04-22T08:23:25;100397.72;;;17.58
75431;BMP280;64127;51.488;5.462;2023-04-22T08:25:57;100385.34;;;17.60
75431;BMP280;64127;51.488;5.462;2023-04-22T08:28:29;100375.63;;;17.56
75431;BMP280;64127;51.488;5.462;2023-04-22T08:31:01;100381.78;;;17.55
75431;BMP280;64127;51.488;5.462;2023-04-22T08:33:33;100380.09;;;17.63
75431;BMP280;64127;51.488;5.462;2023-04-22T08:36:06;100382.75;;;17.71
75431;BMP280;64127;51.488;5.462;2023-04-22T08:38:39;100374.00;;;17.89
75431;BMP280;64127;51.488;5.462;2023-04-22T08:41:11;100364.31;;;18.12
75431;BMP280;64127;51.488;5.462;2023-04-22T08:43:45;100365.28;;;18.38
75431;BMP280;64127;51.488;5.462;2023-04-22T08:46:17;100359.13;;;18.63
75431;BMP280;64127;51.488;5.462;2023-04-22T08:48:53;100344.97;;;18.80
75431;BMP280;64127;51.488;5.462;2023-04-22T08:51:26;100337.00;;;18.90
75431;BMP280;64127;51.488;5.462;2023-04-22T08:53:59;100331.66;;;19.02
75431;BMP280;64127;51.488;5.462;2023-04-22T08:56:31;100330.75;;;19.08
75431;BMP280;64127;51.488;5.462;2023-04-22T08:59:04;100335.19;;;19.10
75431;BMP280;64127;51.488;5.462;2023-04-22T09:01:39;100339.63;;;19.01
75431;BMP280;64127;51.488;5.462;2023-04-22T09:04:14;100324.59;;;18.92
75431;BMP280;64127;51.488;5.462;2023-04-22T09:06:46;100343.16;;;19.12
75431;BMP280;64127;51.488;5.462;2023-04-22T09:09:19;100342.22;;;19.34
75431;BMP280;64127;51.488;5.462;2023-04-22T09:11:51;100347.53;;;19.45
75431;BMP280;64127;51.488;5.462;2023-04-22T09:14:24;100346.66;;;19.44
75431;BMP280;64127;51.488;5.462;2023-04-22T09:16:57;100335.13;;;19.44
75431;BMP280;64127;51.488;5.462;2023-04-22T09:19:29;100343.03;;;19.59
75431;BMP280;64127;51.488;5.462;2023-04-22T09:22:01;100334.16;;;19.60
75431;BMP280;64127;51.488;5.462;2023-04-22T09:24:33;100333.25;;;19.62
75431;BMP280;64127;51.488;5.462;2023-04-22T09:27:06;100321.69;;;19.76
75431;BMP280;64127;51.488;5.462;2023-04-22T09:29:47;100323.44;;;19.86
75431;BMP280;64127;51.488;5.462;2023-04-22T09:32:19;100314.44;;;20.02
75431;BMP280;64127;51.488;5.462;2023-04-22T09:34:54;100321.44;;;20.18
75431;BMP280;64127;51.488;5.462;2023-04-22T09:37:28;100319.63;;;20.26
75431;BMP280;64127;51.488;5.462;2023-04-22T09:40:19;100319.53;;;20.38
75431;BMP280;64127;51.488;5.462;2023-04-22T09:42:55;100318.56;;;20.48
75431;BMP280;64127;51.488;5.462;2023-04-22T09:45:39;100320.25;;;20.58
75431;BMP280;64127;51.488;5.462;2023-04-22T09:48:16;100321.16;;;20.60
75431;BMP280;64127;51.488;5.462;2023-04-22T09:50:50;100334.44;;;20.62
75431;BMP280;64127;51.488;5.462;2023-04-22T09:53:22;100335.28;;;20.71
75431;BMP280;64127;51.488;5.462;2023-04-22T09:55:54;100333.47;;;20.73
75431;BMP280;64127;51.488;5.462;2023-04-22T09:58:26;100314.78;;;20.77
75431;BMP280;64127;51.488;5.462;2023-04-22T10:00:58;100318.53;;;20.57
75431;BMP280;64127;51.488;5.462;2023-04-22T10:03:31;100326.56;;;20.50
75431;BMP280;64127;51.488;5.462;2023-04-22T10:06:03;100326.44;;;20.66
75431;BMP280;64127;51.488;5.462;2023-04-22T10:08:36;100315.59;;;20.85
75431;BMP280;64127;51.488;5.462;2023-04-22T10:11:08;100321.63;;;21.03
75431;BMP280;64127;51.488;5.462;2023-04-22T10:13:40;100320.53;;;21.24
75431;BMP280;64127;51.488;5.462;2023-04-22T10:16:13;100328.44;;;21.36
75431;BMP280;64127;51.488;5.462;2023-04-22T10:18:46;100334.81;;;21.20
75431;BMP280;64127;51.488;5.462;2023-04-22T10:21:21;100336.72;;;21.03
75431;BMP280;64127;51.488;5.462;2023-04-22T10:23:58;100331.53;;;20.89
75431;BMP280;64127;51.488;5.462;2023-04-22T10:26:56;100333.47;;;20.73
75431;BMP280;64127;51.488;5.462;2023-04-22T10:29:40;100323.81;;;20.59
75431;BMP280;64127;51.488;5.462;2023-04-22T10:35:06;100328.25;;;20.58
75431;BMP280;64127;51.488;5.462;2023-04-22T10:37:42;100311.38;;;20.59
75431;BMP280;64127;51.488;5.462;2023-04-22T10:40:17;100305.13;;;20.62
75431;BMP280;64127;51.488;5.462;2023-04-22T10:42:51;100294.59;;;20.51
75431;BMP280;64127;51.488;5.462;2023-04-22T10:45:24;100307.13;;;20.40
75431;BMP280;64127;51.488;5.462;2023-04-22T10:48:02;100303.66;;;20.28
75431;BMP280;64127;51.488;5.462;2023-04-22T10:50:37;100314.38;;;20.17
75431;BMP280;64127;51.488;5.462;2023-04-22T10:53:36;100306.47;;;20.03
75431;BMP280;64127;51.488;5.462;2023-04-22T10:56:17;100318.00;;;20.01
75431;BMP280;64127;51.488;5.462;2023-04-22T10:58:50;100332.22;;;19.95
75431;BMP280;64127;51.488;5.462;2023-04-22T11:01:22;100323.44;;;19.77
75431;BMP280;64127;51.488;5.462;2023-04-22T11:04:21;100338.63;;;19.58
75431;BMP280;64127;51.488;5.462;2023-04-22T11:15:16;100321.84;;;19.27
75431;BMP280;64127;51.488;5.462;2023-04-22T11:17:53;100330.69;;;19.29
75431;BMP280;64127;51.488;5.462;2023-04-22T11:20:27;100321.84;;;19.18
75431;BMP280;64127;51.488;5.462;2023-04-22T11:23:01;100316.59;;;19.10
75431;BMP280;64127;51.488;5.462;2023-04-22T11:25:33;100323.66;;;19.13
75431;BMP280;64127;51.488;5.462;2023-04-22T11:28:06;100330.75;;;19.08
75431;BMP280;64127;51.488;5.462;2023-04-22T11:30:38;100305.13;;;18.83
75431;BMP280;64127;51.488;5.462;2023-04-22T11:33:14;100337.00;;;18.93
75431;BMP280;64127;51.488;5.462;2023-04-22T11:35:49;100343.22;;;18.83
75431;BMP280;64127;51.488;5.462;2023-04-22T11:38:21;100337.91;;;18.76
75431;BMP280;64127;51.488;5.462;2023-04-22T11:40:55;100346.75;;;18.73
75431;BMP280;64127;51.488;5.462;2023-04-22T11:43:28;100344.09;;;18.73
75431;BMP280;64127;51.488;5.462;2023-04-22T11:46:00;100313.06;;;18.49
75431;BMP280;64127;51.488;5.462;2023-04-22T11:48:32;100349.38;;;18.64
75431;BMP280;64127;51.488;5.462;2023-04-22T11:51:09;100344.97;;;18.61
75431;BMP280;64127;51.488;5.462;2023-04-22T11:53:49;100343.19;;;18.57
75431;BMP280;64127;51.488;5.462;2023-04-22T11:56:22;100346.75;;;18.61
75431;BMP280;64127;51.488;5.462;2023-04-22T11:58:54;100347.63;;;18.61
75431;BMP280;64127;51.488;5.462;2023-04-22T12:01:28;100344.09;;;18.61
75431;BMP280;64127;51.488;5.462;2023-04-22T12:04:01;100344.09;;;18.61
75431;BMP280;64127;51.488;5.462;2023-04-22T12:06:33;100345.88;;;18.62
75431;BMP280;64127;51.488;5.462;2023-04-22T12:09:06;100343.22;;;18.65
75431;BMP280;64127;51.488;5.462;2023-04-22T12:11:38;100348.53;;;18.72
75431;BMP280;64127;51.488;5.462;2023-04-22T12:14:11;100357.34;;;18.81
75431;BMP280;64127;51.488;5.462;2023-04-22T12:16:43;100351.19;;;18.83
75431;BMP280;64127;51.488;5.462;2023-04-22T12:19:15;100325.47;;;18.78
75431;BMP280;64127;51.488;5.462;2023-04-22T12:21:47;100351.16;;;18.91
75431;BMP280;64127;51.488;5.462;2023-04-22T12:24:19;100347.63;;;18.86
75431;BMP280;64127;51.488;5.462;2023-04-22T12:26:57;100354.72;;;18.79
75431;BMP280;64127;51.488;5.462;2023-04-22T12:29:32;100352.94;;;18.73
75431;BMP280;64127;51.488;5.462;2023-04-22T12:32:04;100348.50;;;18.79
75431;BMP280;64127;51.488;5.462;2023-04-22T12:34:36;100351.16;;;18.85
75431;BMP280;64127;51.488;5.462;2023-04-22T12:37:08;100344.06;;;18.81
75431;BMP280;64127;51.488;5.462;2023-04-22T12:39:40;100352.03;;;18.74
75431;BMP280;64127;51.488;5.462;2023-04-22T12:42:13;100354.72;;;18.65
75431;BMP280;64127;51.488;5.462;2023-04-22T12:44:45;100362.66;;;18.53
75431;BMP280;64127;51.488;5.462;2023-04-22T12:47:17;100383.88;;;18.44
75431;BMP280;64127;51.488;5.462;2023-04-22T12:49:50;100390.91;;;18.33
75431;BMP280;64127;51.488;5.462;2023-04-22T12:52:23;100390.91;;;18.15
75431;BMP280;64127;51.488;5.462;2023-04-22T12:54:55;100397.03;;;18.05
75431;BMP280;64127;51.488;5.462;2023-04-22T12:57:27;100392.63;;;17.98
75431;BMP280;64127;51.488;5.462;2023-04-22T12:59:59;100298.66;;;17.38
75431;BMP280;64127;51.488;5.462;2023-04-22T13:02:31;100371.31;;;17.73
75431;BMP280;64127;51.488;5.462;2023-04-22T13:05:03;100403.19;;;17.90
75431;BMP280;64127;51.488;5.462;2023-04-22T13:07:36;100411.09;;;17.81
75431;BMP280;64127;51.488;5.462;2023-04-22T13:10:14;100408.41;;;17.78
75431;BMP280;64127;51.488;5.462;2023-04-22T13:12:47;100397.84;;;17.80
75431;BMP280;64127;51.488;5.462;2023-04-22T13:15:20;100395.22;;;17.87
75431;BMP280;64127;51.488;5.462;2023-04-22T13:17:52;100406.75;;;17.97
75431;BMP280;64127;51.488;5.462;2023-04-22T13:20:25;100398.81;;;18.04
75431;BMP280;64127;51.488;5.462;2023-04-22T13:22:57;100394.41;;;18.08
75431;BMP280;64127;51.488;5.462;2023-04-22T13:25:29;100396.16;;;18.09
75431;BMP280;64127;51.488;5.462;2023-04-22T13:28:01;100401.47;;;18.09
75431;BMP280;64127;51.488;5.462;2023-04-22T13:30:35;100397.06;;;18.09
75431;BMP280;64127;51.488;5.462;2023-04-22T13:33:07;100390.00;;;18.11
75431;BMP280;64127;51.488;5.462;2023-04-22T13:35:39;100389.13;;;18.17
75431;BMP280;64127;51.488;5.462;2023-04-22T13:38:11;100387.38;;;18.20
75431;BMP280;64127;51.488;5.462;2023-04-22T13:40:43;100389.13;;;18.23
75431;BMP280;64127;51.488;5.462;2023-04-22T13:43:15;100382.03;;;18.19
75431;BMP280;64127;51.488;5.462;2023-04-22T13:45:47;100396.22;;;18.27
75431;BMP280;64127;51.488;5.462;2023-04-22T13:48:20;100384.72;;;18.28
75431;BMP280;64127;51.488;5.462;2023-04-22T13:50:52;100382.94;;;18.27
75431;BMP280;64127;51.488;5.462;2023-04-22T13:53:24;100372.31;;;18.22
75431;BMP280;64127;51.488;5.462;2023-04-22T13:55:56;100380.31;;;18.29
75431;BMP280;64127;51.488;5.462;2023-04-22T13:58:28;100375.88;;;18.28
75431;BMP280;64127;51.488;5.462;2023-04-22T14:01:00;100365.25;;;18.28
75431;BMP280;64127;51.488;5.462;2023-04-22T14:03:33;100383.88;;;18.38
75431;BMP280;64127;51.488;5.462;2023-04-22T14:06:06;100373.25;;;18.41
75431;BMP280;64127;51.488;5.462;2023-04-22T14:08:38;100375.91;;;18.41
75431;BMP280;64127;51.488;5.462;2023-04-22T14:11:10;100349.31;;;18.20
75431;BMP280;64127;51.488;5.462;2023-04-22T14:13:42;100372.34;;;18.35
75431;BMP280;64127;51.488;5.462;2023-04-22T14:16:15;100373.22;;;18.34
75431;BMP280;64127;51.488;5.462;2023-04-22T14:18:48;100373.25;;;18.32
75431;BMP280;64127;51.488;5.462;2023-04-22T14:21:21;100367.91;;;18.26
75431;BMP280;64127;51.488;5.462;2023-04-22T14:23:53;100375.84;;;18.20
75431;BMP280;64127;51.488;5.462;2023-04-22T14:26:25;100367.84;;;18.05
75431;BMP280;64127;51.488;5.462;2023-04-22T14:28:57;100382.00;;;18.01
75431;BMP280;64127;51.488;5.462;2023-04-22T14:31:29;100381.06;;;17.88
75431;BMP280;64127;51.488;5.462;2023-04-22T14:34:01;100389.88;;;17.83
75431;BMP280;64127;51.488;5.462;2023-04-22T14:36:33;100390.75;;;17.76
75431;BMP280;64127;51.488;5.462;2023-04-22T14:39:06;100389.84;;;17.70